Bei Facebook empfehlenBei Twitter postenGoogle plusPinterest

Das Wetter im Erzgebirge am 14.12.2016

Wetter und Klima am 14.12.2016 Holzhau im Erzgebirge (630m ü.NN)
Letzte gemessene Temperatur und Uhrzeit der Messung23:45:00 Uhr1.00 °C
Temperatur (Maximum / Höchstwert) und Uhrzeit der Messung15:15:00 Uhr3.30 °C
Temperatur (Minimum / Tiefstwert) und Uhrzeit der Messung00:00:000.10 °C
Errechneter Absolutwert der Temperaturschwankungen zwischen Tmin und Tmax des Tages3.20 K
Errechnete Tagesmitteltemperatur2.32708 °C
Gesamt - Niederschlag des Tages (in flüssiger Form)3.63 Liter / m²
Luftdruck (Maximum / Höchstwert) und Zeitpunkt der Messung23:45:00 Uhr1023.30 hPa
Luftdruck (Minimum / Tiefstwert) und Zeitpunkt der Messung06:15:00 Uhr1016.70 hPa
Errechneter Absolutwert der Luftdruckschwankungen des Tages6.60 hPa
Höchste gemessene Windgeschwindigkeit und Uhrzeit der Messung23:45:00 Uhr0.00 km/h
Errechnete Windhäufigkeit in Relation zu den Messwerten des Tages0.00000 %
Niedrigste Windkühle (Windchill) und Zeitpunkt der Messung00:00:00 Uhr0.10 °C
Taupunkt (Maximum / Höchstwert) und Uhrzeit der Messung15:15:00 Uhr3.00 °C
Taupunkt (Minimum / Tiefstwert) und Uhrzeit der Messung00:00:00-0.30 °C
Anzahl der automatisch eingelesenen Messwerte 96

Detaillierte Wetter- und Klima- Messwerte für den 14.12.2016 in Holzhau im Erzgebirge (630m ü.NN)
ZeitTemperaturLuftdruckRel. LuftfeuchteWindWindrichtungWindchillTaupunktNiederschlag l/m²
23:45:001.00 °C1023.30 hPa98.00 %0.70 °C3.63
23:30:001.10 °C1023.20 hPa98.00 %0.80 °C3.63
23:15:001.20 °C1023.20 hPa97.00 %0.80 °C3.63
23:00:001.30 °C1022.90 hPa97.00 %0.90 °C3.63
22:45:001.40 °C1022.90 hPa97.00 %1.00 °C3.63
22:30:001.50 °C1022.70 hPa97.00 %1.10 °C3.63
22:15:001.60 °C1022.90 hPa97.00 %1.20 °C3.63
22:00:001.60 °C1022.60 hPa97.00 %1.20 °C3.63
21:45:001.80 °C1022.40 hPa97.00 %1.40 °C3.63
21:30:002.00 °C1022.50 hPa97.00 %1.60 °C3.63
21:15:002.10 °C1022.30 hPa97.00 %1.70 °C3.63
21:00:002.20 °C1022.20 hPa97.00 %1.80 °C3.63
20:45:002.30 °C1022.10 hPa97.00 %1.90 °C3.63
20:30:002.40 °C1021.90 hPa97.00 %2.00 °C3.63
20:15:002.40 °C1022.00 hPa97.00 %2.00 °C3.63
20:00:002.50 °C1021.70 hPa97.00 %2.10 °C3.63
19:45:002.50 °C1021.60 hPa97.00 %2.10 °C3.63
19:30:002.60 °C1021.60 hPa97.00 %2.20 °C3.63
19:15:002.70 °C1021.70 hPa98.00 %2.40 °C3.63
19:00:002.80 °C1021.50 hPa98.00 %2.50 °C3.63
18:45:002.80 °C1021.40 hPa98.00 %2.50 °C3.63
18:30:002.90 °C1021.50 hPa98.00 %2.60 °C3.63
18:15:002.90 °C1021.10 hPa98.00 %2.60 °C3.63
18:00:002.90 °C1020.90 hPa98.00 %2.60 °C3.63
17:45:002.90 °C1020.80 hPa98.00 %2.60 °C3.63
17:30:003.00 °C1020.80 hPa98.00 %2.70 °C3.63
17:15:003.10 °C1020.80 hPa98.00 %2.80 °C3.63
17:00:003.10 °C1020.70 hPa98.00 %2.80 °C3.63
16:45:003.10 °C1020.50 hPa98.00 %2.80 °C3.63
16:30:003.10 °C1020.40 hPa98.00 %2.80 °C3.63
16:15:003.10 °C1020.30 hPa98.00 %2.80 °C3.63
16:00:003.10 °C1020.30 hPa98.00 %2.80 °C3.63
15:45:003.20 °C1020.10 hPa98.00 %2.90 °C3.11
15:30:003.20 °C1019.70 hPa98.00 %2.90 °C3.11
15:15:003.30 °C1019.70 hPa98.00 %3.00 °C3.11
15:00:003.30 °C1019.40 hPa98.00 %3.00 °C3.11
14:45:003.30 °C1019.20 hPa98.00 %3.00 °C2.59
14:30:003.30 °C1019.20 hPa98.00 %3.00 °C2.59
14:15:003.30 °C1019.00 hPa98.00 %3.00 °C2.07
14:00:003.20 °C1018.90 hPa98.00 %2.90 °C2.07
13:45:003.20 °C1019.00 hPa98.00 %2.90 °C2.07
13:30:003.20 °C1018.80 hPa98.00 %2.90 °C2.07
13:15:003.20 °C1018.90 hPa98.00 %2.90 °C2.07
13:00:003.10 °C1018.70 hPa98.00 %2.80 °C2.07
12:45:003.10 °C1018.80 hPa98.00 %2.80 °C2.07
12:30:003.00 °C1018.80 hPa98.00 %2.70 °C2.07
12:15:003.10 °C1018.70 hPa98.00 %2.80 °C2.07
12:00:003.00 °C1018.80 hPa98.00 %2.70 °C2.07
11:45:003.00 °C1018.90 hPa98.00 %2.70 °C2.07
11:30:003.00 °C1018.70 hPa98.00 %2.70 °C2.07
11:15:002.90 °C1018.50 hPa98.00 %2.60 °C2.07
11:00:002.90 °C1018.50 hPa98.00 %2.60 °C2.07
10:45:002.90 °C1018.50 hPa98.00 %2.60 °C2.07
10:30:002.90 °C1018.40 hPa98.00 %2.60 °C2.07
10:15:002.80 °C1018.30 hPa98.00 %2.50 °C2.07
10:00:002.80 °C1018.10 hPa98.00 %2.50 °C2.07
09:45:002.80 °C1018.00 hPa98.00 %2.50 °C1.56
09:30:002.70 °C1017.80 hPa98.00 %2.40 °C1.56
09:15:002.70 °C1017.80 hPa98.00 %2.40 °C1.04
09:00:002.60 °C1017.70 hPa97.00 %2.20 °C1.04
08:45:002.60 °C1017.70 hPa97.00 %2.20 °C1.04
08:30:002.60 °C1017.60 hPa97.00 %2.20 °C1.04
08:15:002.60 °C1017.40 hPa97.00 %2.20 °C1.04
08:00:002.60 °C1017.20 hPa97.00 %2.20 °C0.52
07:45:002.70 °C1017.20 hPa97.00 %2.30 °C0.52
07:30:002.70 °C1017.00 hPa97.00 %2.30 °C0.52
07:15:002.80 °C1017.10 hPa97.00 %2.40 °C0.52
07:00:002.80 °C1016.90 hPa97.00 %2.40 °C0.52
06:45:002.80 °C1016.80 hPa97.00 %2.40 °C0.52
06:30:002.80 °C1016.80 hPa97.00 %2.40 °C0.52
06:15:002.80 °C1016.70 hPa97.00 %2.40 °C0.52
06:00:002.80 °C1016.70 hPa97.00 %2.40 °C0.52
05:45:002.70 °C1016.70 hPa97.00 %2.30 °C0.52
05:30:002.50 °C1016.80 hPa97.00 %2.10 °C0.52
05:15:002.50 °C1016.80 hPa97.00 %2.10 °C0.52
05:00:002.40 °C1016.80 hPa97.00 %2.00 °C0.52
04:45:002.40 °C1016.80 hPa97.00 %2.00 °C0.52
04:30:002.20 °C1016.70 hPa97.00 %1.80 °C0.52
04:15:002.00 °C1016.70 hPa97.00 %1.60 °C0.52
04:00:001.80 °C1017.00 hPa97.00 %1.40 °C0.52
03:45:001.70 °C1017.20 hPa97.00 %1.30 °C0.52
03:30:001.50 °C1017.30 hPa97.00 %1.10 °C0.52
03:15:001.30 °C1017.30 hPa97.00 %0.90 °C0.52
03:00:001.30 °C1017.30 hPa97.00 %0.90 °C0.52
02:45:001.10 °C1017.50 hPa97.00 %0.70 °C 
02:30:001.20 °C1017.60 hPa97.00 %0.80 °C 
02:15:001.20 °C1017.70 hPa97.00 %0.80 °C 
02:00:000.90 °C1017.70 hPa97.00 %0.50 °C 
01:45:000.50 °C1017.70 hPa97.00 %0.10 °C 
01:30:000.30 °C1017.50 hPa97.00 %-0.10 °C 
01:15:000.30 °C1017.60 hPa97.00 %-0.10 °C 
01:00:000.30 °C1017.80 hPa97.00 %-0.10 °C 
00:45:000.20 °C1017.80 hPa97.00 %-0.20 °C 
00:30:000.20 °C1017.90 hPa97.00 %-0.20 °C 
00:15:000.20 °C1017.90 hPa97.00 %-0.20 °C 
00:00:000.10 °C1017.90 hPa97.00 %-0.30 °C 

Permanenter Link zu dieser Seite: Wetter im Erzgebirge am 14.12.2016
Performance-Info: Die Erstellung der Seite / Statistik(en) / Tabelle(n) erforderte 5 Datenbankserver-Abfrage(n) und dauerte 69 Millisekunden. (Dieser Messwert ist von der Gesamt-Auslastung des Servers abhängig.)
Erzgebirge - Wetter | Erzgebirge - Wetter (Mobilgeräte) | Komplette Klimadatenbank